createdAt,value
2023-03-28T00:00:17.018Z,97779.73
2023-03-28T00:02:43.604Z,97773.65
2023-03-28T00:05:10.417Z,97772.68
2023-03-28T00:07:37.117Z,97774.41
2023-03-28T00:10:04.572Z,97777.70
2023-03-28T00:12:31.184Z,97769.39
2023-03-28T00:14:57.836Z,97773.69
2023-03-28T00:17:25.309Z,97772.02
2023-03-28T00:19:52.089Z,97777.48
2023-03-28T00:22:18.563Z,97775.01
2023-03-28T00:24:45.049Z,97771.80
2023-03-28T00:27:11.621Z,97774.13
2023-03-28T00:29:38.097Z,97777.05
2023-03-28T00:32:05.132Z,97780.86
2023-03-28T00:34:31.672Z,97785.52
2023-03-28T00:36:58.196Z,97789.35
2023-03-28T00:39:24.759Z,97791.52
2023-03-28T00:41:51.349Z,97791.80
2023-03-28T00:44:50.395Z,97794.30
2023-03-28T00:47:35.265Z,97799.77
2023-03-28T00:50:17.205Z,97796.96
2023-03-28T00:52:51.204Z,97796.33
2023-03-28T00:55:23.775Z,97798.09
2023-03-28T00:57:51.238Z,97798.51
2023-03-28T01:00:18.428Z,97799.77
2023-03-28T01:02:48.072Z,97799.68
2023-03-28T01:05:14.650Z,97794.82
2023-03-28T01:07:46.151Z,97793.19
2023-03-28T01:10:12.684Z,97795.99
2023-03-28T01:12:43.365Z,97793.00
2023-03-28T01:15:11.772Z,97791.99
2023-03-28T01:17:41.795Z,97795.80
2023-03-28T01:20:27.446Z,97797.08
2023-03-28T01:23:31.996Z,97799.17
2023-03-28T01:26:28.123Z,97795.80
2023-03-28T01:29:16.293Z,97790.55
2023-03-28T01:32:21.183Z,97794.23
2023-03-28T01:35:05.908Z,97792.30
2023-03-28T01:37:42.385Z,97789.50
2023-03-28T01:40:33.346Z,97788.40
2023-03-28T01:43:08.457Z,97789.33
2023-03-28T01:46:08.028Z,97788.48
2023-03-28T01:48:56.030Z,97789.59
2023-03-28T01:51:34.700Z,97794.23
2023-03-28T01:54:26.912Z,97794.95
2023-03-28T01:57:44.441Z,97802.10
2023-03-28T02:00:24.301Z,97808.73
2023-03-28T02:03:10.285Z,97805.02
2023-03-28T02:05:39.117Z,97808.43
2023-03-28T02:08:09.558Z,97812.15
2023-03-28T02:10:40.879Z,97815.92
2023-03-28T02:13:14.380Z,97814.77
2023-03-28T02:15:45.514Z,97816.99
2023-03-28T02:18:19.287Z,97814.45
2023-03-28T02:20:52.988Z,97816.02
2023-03-28T02:23:28.551Z,97810.29
2023-03-28T02:25:55.438Z,97812.53
2023-03-28T02:28:23.725Z,97810.67
2023-03-28T02:30:50.958Z,97809.33
2023-03-28T02:33:50.964Z,97805.76
2023-03-28T02:36:44.767Z,97803.38
2023-03-28T02:39:32.908Z,97808.64
2023-03-28T02:42:14.928Z,97805.42
2023-03-28T02:45:06.318Z,97809.86
2023-03-28T02:47:44.842Z,97815.35
2023-03-28T02:50:34.650Z,97815.02
2023-03-28T02:53:08.904Z,97814.89
2023-03-28T02:56:10.214Z,97815.23
2023-03-28T02:59:16.145Z,97815.91
2023-03-28T03:01:43.722Z,97816.77
2023-03-28T03:04:11.203Z,97822.72
2023-03-28T03:06:37.778Z,97821.71
2023-03-28T03:09:04.971Z,97821.73
2023-03-28T03:11:32.351Z,97821.23
2023-03-28T03:13:58.801Z,97823.74
2023-03-28T03:16:27.023Z,97825.95
2023-03-28T03:18:55.931Z,97823.02
2023-03-28T03:21:23.084Z,97822.34
2023-03-28T03:23:51.844Z,97822.13
2023-03-28T03:26:18.610Z,97824.31
2023-03-28T03:28:45.143Z,97821.73
2023-03-28T03:31:12.140Z,97820.85
2023-03-28T03:33:38.698Z,97824.06
2023-03-28T03:36:06.259Z,97822.31
2023-03-28T03:38:32.815Z,97819.76
2023-03-28T03:40:59.480Z,97819.23
2023-03-28T03:43:25.914Z,97820.38
2023-03-28T03:45:52.522Z,97818.35
2023-03-28T03:48:19.356Z,97820.21
2023-03-28T03:50:45.892Z,97817.34
2023-03-28T03:53:12.533Z,97816.83
2023-03-28T03:55:40.725Z,97820.39
2023-03-28T03:58:07.440Z,97819.71
2023-03-28T04:00:33.985Z,97817.20
2023-03-28T04:03:00.467Z,97817.91
2023-03-28T04:05:26.995Z,97816.09
2023-03-28T04:07:53.539Z,97820.88
2023-03-28T04:10:20.595Z,97818.69
2023-03-28T04:12:47.356Z,97817.04
2023-03-28T04:15:13.992Z,97823.20
2023-03-28T04:17:41.125Z,97824.26
2023-03-28T04:20:08.709Z,97827.52
2023-03-28T04:22:35.251Z,97827.87
2023-03-28T04:25:01.998Z,97835.21
2023-03-28T04:27:28.574Z,97833.04
2023-03-28T04:29:55.319Z,97833.23
2023-03-28T04:32:21.777Z,97829.52
2023-03-28T04:34:48.507Z,97829.83
2023-03-28T04:37:16.774Z,97830.88
2023-03-28T04:39:43.728Z,97829.35
2023-03-28T04:42:10.302Z,97831.02
2023-03-28T04:44:37.033Z,97831.00
2023-03-28T04:47:03.651Z,97831.30
2023-03-28T04:49:30.225Z,97827.19
2023-03-28T04:51:56.769Z,97828.00
2023-03-28T04:54:23.372Z,97832.90
2023-03-28T04:56:49.870Z,97835.73
2023-03-28T04:59:17.725Z,97833.90
2023-03-28T05:01:45.010Z,97828.30
2023-03-28T05:04:11.537Z,97823.33
2023-03-28T05:06:38.077Z,97817.30
2023-03-28T05:09:04.576Z,97832.76
2023-03-28T05:11:31.065Z,97833.65
2023-03-28T05:13:59.142Z,97836.08
2023-03-28T05:16:25.727Z,97838.02
2023-03-28T05:18:52.294Z,97835.59
2023-03-28T05:21:44.509Z,97837.79
2023-03-28T05:24:11.007Z,97837.45
2023-03-28T05:26:37.445Z,97836.60
2023-03-28T05:29:04.224Z,97838.70
2023-03-28T05:31:30.925Z,97834.46
2023-03-28T05:33:57.724Z,97830.90
2023-03-28T05:36:24.180Z,97836.16
2023-03-28T05:38:50.702Z,97838.66
2023-03-28T05:41:17.509Z,97836.87
2023-03-28T05:43:43.996Z,97831.70
2023-03-28T05:46:10.524Z,97833.83
2023-03-28T05:48:37.121Z,97836.98
2023-03-28T05:51:03.736Z,97829.92
2023-03-28T05:53:30.179Z,97823.83
2023-03-28T05:55:56.626Z,97827.36
2023-03-28T05:58:24.718Z,97827.36
2023-03-28T06:00:51.168Z,97828.73
2023-03-28T06:03:18.116Z,97827.04
2023-03-28T06:05:45.127Z,97823.81
2023-03-28T06:08:11.850Z,97825.32
2023-03-28T06:10:38.585Z,97823.85
2023-03-28T06:13:05.127Z,97824.77
2023-03-28T06:15:32.200Z,97823.91
2023-03-28T06:17:58.684Z,97825.42
2023-03-28T06:20:25.333Z,97823.59
2023-03-28T06:22:53.483Z,97824.05
2023-03-28T06:25:20.199Z,97825.76
2023-03-28T06:27:46.821Z,97819.95
2023-03-28T06:30:14.088Z,97825.88
2023-03-28T06:32:40.598Z,97837.39
2023-03-28T06:35:08.095Z,97832.88
2023-03-28T06:37:34.533Z,97833.11
2023-03-28T06:40:00.988Z,97833.86
2023-03-28T06:42:27.501Z,97830.54
2023-03-28T06:44:54.092Z,97826.75
2023-03-28T06:47:20.594Z,97822.48
2023-03-28T06:49:47.269Z,97831.52
2023-03-28T06:52:13.715Z,97829.42
2023-03-28T06:54:40.134Z,97832.66
2023-03-28T06:57:06.687Z,97839.70
2023-03-28T06:59:33.251Z,97843.42
2023-03-28T07:01:59.699Z,97849.62
2023-03-28T07:04:26.299Z,97856.15
2023-03-28T07:06:52.763Z,97865.33
2023-03-28T07:09:19.337Z,97878.48
2023-03-28T07:11:45.855Z,97874.28
2023-03-28T07:14:12.503Z,97872.94
2023-03-28T07:16:38.971Z,97875.42
2023-03-28T07:19:05.716Z,97887.29
2023-03-28T07:21:32.219Z,97891.58
2023-03-28T07:23:58.876Z,97896.09
2023-03-28T07:26:25.719Z,97899.19
2023-03-28T07:28:54.024Z,97895.98
2023-03-28T07:31:20.881Z,97902.98
2023-03-28T07:33:47.977Z,97903.87
2023-03-28T07:36:21.245Z,97900.17
2023-03-28T07:38:49.571Z,97896.14
2023-03-28T07:41:16.971Z,97896.48
2023-03-28T07:43:44.349Z,97896.59
2023-03-28T07:46:13.541Z,97892.88
2023-03-28T07:48:40.718Z,97896.74
2023-03-28T07:51:09.290Z,97901.47
2023-03-28T07:53:37.220Z,97902.58
2023-03-28T07:56:05.065Z,97903.42
2023-03-28T07:58:31.805Z,97906.98
2023-03-28T08:01:04.569Z,97905.41
2023-03-28T08:03:31.282Z,97903.48
2023-03-28T08:06:01.743Z,97906.20
2023-03-28T08:08:29.531Z,97913.19
2023-03-28T08:10:56.188Z,97911.62
2023-03-28T08:13:23.463Z,97918.39
2023-03-28T08:15:53.608Z,97923.59
2023-03-28T08:18:22.191Z,97926.27
2023-03-28T08:20:48.735Z,97927.02
2023-03-28T08:23:16.468Z,97922.04
2023-03-28T08:25:47.134Z,97925.38
2023-03-28T08:28:13.823Z,97930.47
2023-03-28T08:30:40.544Z,97926.95
2023-03-28T08:33:07.226Z,97927.67
2023-03-28T08:35:33.782Z,97931.27
2023-03-28T08:38:00.372Z,97930.88
2023-03-28T08:40:28.768Z,97929.46
2023-03-28T08:43:15.285Z,97932.30
2023-03-28T08:45:57.581Z,97936.16
2023-03-28T08:48:39.741Z,97924.88
2023-03-28T08:51:22.165Z,97934.61
2023-03-28T08:54:11.785Z,97937.02
2023-03-28T08:56:49.336Z,97933.52
2023-03-28T08:59:48.458Z,97933.03
2023-03-28T09:02:19.685Z,97937.81
2023-03-28T09:04:47.327Z,97941.61
2023-03-28T09:07:54.053Z,97950.04
2023-03-28T09:10:41.359Z,97960.61
2023-03-28T09:13:40.781Z,97960.79
2023-03-28T09:16:18.829Z,97969.58
2023-03-28T09:19:05.284Z,97974.85
2023-03-28T09:22:15.547Z,97974.10
2023-03-28T09:25:04.845Z,97980.79
2023-03-28T09:27:41.126Z,97985.99
2023-03-28T09:30:19.758Z,97995.05
2023-03-28T09:32:46.528Z,98006.11
2023-03-28T09:35:19.085Z,98013.50
2023-03-28T09:37:54.358Z,98015.13
2023-03-28T09:40:25.044Z,98026.08
2023-03-28T09:43:06.855Z,98049.84
2023-03-28T09:45:36.146Z,98040.41
2023-03-28T09:48:05.169Z,98028.52
2023-03-28T09:50:31.723Z,98028.52
2023-03-28T09:52:59.246Z,98040.94
2023-03-28T09:55:30.777Z,98036.27
2023-03-28T09:58:06.429Z,98039.41
2023-03-28T10:00:46.217Z,98047.47
2023-03-28T10:03:19.629Z,98045.89
2023-03-28T10:05:46.730Z,98048.55
2023-03-28T10:08:24.728Z,98043.23
2023-03-28T10:11:00.694Z,98045.33
2023-03-28T10:13:28.790Z,98042.60
2023-03-28T10:15:56.806Z,98045.90
2023-03-28T10:18:27.813Z,98050.62
2023-03-28T10:20:54.776Z,98056.01
2023-03-28T10:23:23.733Z,98057.38
2023-03-28T10:25:54.589Z,98051.41
2023-03-28T10:28:32.867Z,98053.52
2023-03-28T10:31:02.671Z,98053.20
2023-03-28T10:33:35.384Z,98043.20
2023-03-28T10:36:07.198Z,98050.09
2023-03-28T10:38:48.263Z,98059.67
2023-03-28T10:41:26.228Z,98063.94
2023-03-28T10:43:53.906Z,98054.92
2023-03-28T10:46:24.513Z,98072.84
2023-03-28T10:49:03.990Z,98054.86
2023-03-28T10:51:32.281Z,98067.28
2023-03-28T10:54:36.712Z,98093.84
2023-03-28T10:57:13.195Z,98093.83
2023-03-28T10:59:45.567Z,98093.23
2023-03-28T11:02:15.045Z,98098.02
2023-03-28T11:04:54.678Z,98101.44
2023-03-28T11:07:45.147Z,98104.64
2023-03-28T11:10:19.265Z,98110.77
2023-03-28T11:12:55.547Z,98112.02
2023-03-28T11:15:58.384Z,98108.76
2023-03-28T11:18:40.002Z,98106.77
2023-03-28T11:21:32.508Z,98117.57
2023-03-28T11:24:04.956Z,98122.95
2023-03-28T11:26:48.504Z,98108.63
2023-03-28T11:29:19.535Z,98121.33
2023-03-28T11:32:03.721Z,98129.12
2023-03-28T11:34:41.500Z,98128.11
2023-03-28T11:37:15.555Z,98129.59
2023-03-28T11:40:09.584Z,98123.92
2023-03-28T11:42:47.439Z,98137.31
2023-03-28T11:45:51.326Z,98142.30
2023-03-28T11:48:29.182Z,98135.08
2023-03-28T11:51:26.765Z,98140.09
2023-03-28T11:54:23.730Z,98139.44
2023-03-28T11:56:58.920Z,98139.16
2023-03-28T11:59:35.122Z,98131.41
2023-03-28T12:02:15.581Z,98133.77
2023-03-28T12:04:49.840Z,98138.83
2023-03-28T12:07:22.204Z,98137.48
2023-03-28T12:10:08.579Z,98127.95
2023-03-28T12:12:56.856Z,98137.39
2023-03-28T12:15:45.329Z,98131.64
2023-03-28T12:18:23.944Z,98136.80
2023-03-28T12:21:04.784Z,98135.88
2023-03-28T12:23:38.732Z,98146.26
2023-03-28T12:26:45.732Z,98142.88
2023-03-28T12:29:32.190Z,98139.38
2023-03-28T12:32:32.497Z,98150.42
2023-03-28T12:35:11.503Z,98139.81
2023-03-28T12:37:43.386Z,98141.80
2023-03-28T12:40:12.817Z,98135.85
2023-03-28T12:42:42.732Z,98144.25
2023-03-28T12:45:20.966Z,98146.40
2023-03-28T12:47:53.443Z,98143.79
2023-03-28T12:50:35.520Z,98152.80
2023-03-28T12:53:02.367Z,98151.25
2023-03-28T12:55:28.930Z,98157.45
2023-03-28T12:58:13.953Z,98161.80
2023-03-28T13:00:54.662Z,98181.75
2023-03-28T13:03:59.327Z,98179.04
2023-03-28T13:06:52.150Z,98170.70
2023-03-28T13:09:43.918Z,98164.16
2023-03-28T13:12:22.678Z,98166.18
2023-03-28T13:15:22.433Z,98162.76
2023-03-28T13:18:17.882Z,98149.70
2023-03-28T13:20:46.153Z,98162.86
2023-03-28T13:23:15.429Z,98186.87
2023-03-28T13:25:52.628Z,98190.93
2023-03-28T13:28:40.005Z,98185.44
2023-03-28T13:31:19.723Z,98185.27
2023-03-28T13:33:58.997Z,98177.79
2023-03-28T13:36:31.971Z,98178.14
2023-03-28T13:39:19.493Z,98169.41
2023-03-28T13:41:45.967Z,98169.95
2023-03-28T13:44:17.332Z,98172.09
2023-03-28T13:46:50.872Z,98175.64
2023-03-28T13:49:19.289Z,98179.23
2023-03-28T13:51:55.722Z,98172.91
2023-03-28T13:54:24.002Z,98175.48
2023-03-28T13:56:52.946Z,98179.56
2023-03-28T13:59:25.337Z,98164.80
2023-03-28T14:01:56.936Z,98179.99
2023-03-28T14:04:50.277Z,98178.45
2023-03-28T14:07:23.679Z,98187.16
2023-03-28T14:09:50.120Z,98193.56
2023-03-28T14:12:16.890Z,98201.89
2023-03-28T14:14:51.663Z,98207.20
2023-03-28T14:17:23.343Z,98218.44
2023-03-28T14:19:57.228Z,98233.58
2023-03-28T14:22:32.264Z,98242.84
2023-03-28T14:25:01.456Z,98256.48
2023-03-28T14:27:30.962Z,98268.82
2023-03-28T14:29:59.936Z,98273.45
2023-03-28T14:32:32.546Z,98282.08
2023-03-28T14:35:18.342Z,98288.15
2023-03-28T14:37:56.877Z,98285.34
2023-03-28T14:40:23.271Z,98289.31
2023-03-28T14:42:55.595Z,98288.86
2023-03-28T14:45:25.525Z,98275.73
2023-03-28T14:47:52.331Z,98278.34
2023-03-28T14:50:20.982Z,98269.98
2023-03-28T14:52:48.010Z,98267.63
2023-03-28T14:55:18.729Z,98272.30
2023-03-28T14:57:47.251Z,98272.21
2023-03-28T15:00:19.269Z,98274.77
2023-03-28T15:02:47.273Z,98284.27
2023-03-28T15:05:17.824Z,98296.16
2023-03-28T15:07:45.980Z,98301.55
2023-03-28T15:10:13.757Z,98303.38
2023-03-28T15:13:06.374Z,98305.41
2023-03-28T15:15:38.263Z,98325.60
2023-03-28T15:18:11.256Z,98343.03
2023-03-28T15:20:39.320Z,98353.13
2023-03-28T15:23:14.362Z,98341.42
2023-03-28T15:25:43.472Z,98341.71
2023-03-28T15:28:15.908Z,98340.05
2023-03-28T15:30:46.242Z,98343.73
2023-03-28T15:33:23.272Z,98355.48
2023-03-28T15:35:49.894Z,98351.63
2023-03-28T15:38:27.940Z,98346.89
2023-03-28T15:41:16.661Z,98351.57
2023-03-28T15:43:55.129Z,98340.87
2023-03-28T15:46:28.504Z,98349.67
2023-03-28T15:48:59.544Z,98355.19
2023-03-28T15:51:27.114Z,98360.65
2023-03-28T15:53:55.492Z,98364.98
2023-03-28T15:56:26.120Z,98363.92
2023-03-28T15:58:59.116Z,98371.77
2023-03-28T16:01:30.599Z,98361.95
2023-03-28T16:04:16.174Z,98363.48
2023-03-28T16:06:44.658Z,98368.40
2023-03-28T16:09:20.424Z,98369.80
2023-03-28T16:11:51.949Z,98372.81
2023-03-28T16:14:19.953Z,98375.98
2023-03-28T16:16:46.743Z,98375.55
2023-03-28T16:19:22.320Z,98374.27
2023-03-28T16:21:49.240Z,98377.91
2023-03-28T16:24:16.172Z,98381.54
2023-03-28T16:26:43.447Z,98382.11
2023-03-28T16:29:10.146Z,98390.88
2023-03-28T16:31:37.396Z,98400.52
2023-03-28T16:34:06.055Z,98400.59
2023-03-28T16:36:34.621Z,98408.55
2023-03-28T16:39:01.359Z,98413.23
2023-03-28T16:41:28.116Z,98404.48
2023-03-28T16:43:54.655Z,98405.06
2023-03-28T16:46:21.283Z,98399.67
2023-03-28T16:48:47.843Z,98408.73
2023-03-28T16:51:14.433Z,98415.73
2023-03-28T16:53:41.237Z,98421.02
2023-03-28T16:56:09.518Z,98430.05
2023-03-28T16:58:36.067Z,98437.69
2023-03-28T17:01:15.361Z,98437.02
2023-03-28T17:03:41.989Z,98431.91
2023-03-28T17:06:10.042Z,98435.33
2023-03-28T17:08:37.199Z,98438.73
2023-03-28T17:11:09.417Z,98440.27
2023-03-28T17:13:39.774Z,98443.83
2023-03-28T17:16:08.226Z,98449.44
2023-03-28T17:18:34.848Z,98452.66
2023-03-28T17:21:10.261Z,98454.86
2023-03-28T17:23:38.498Z,98460.29
2023-03-28T17:26:07.057Z,98458.73
2023-03-28T17:28:34.171Z,98459.91
2023-03-28T17:31:05.647Z,98459.86
2023-03-28T17:33:32.649Z,98466.83
2023-03-28T17:36:00.626Z,98467.83
2023-03-28T17:38:27.604Z,98471.20
2023-03-28T17:40:54.349Z,98459.78
2023-03-28T17:43:21.202Z,98477.49
2023-03-28T17:45:53.726Z,98475.98
2023-03-28T17:48:20.176Z,98482.96
2023-03-28T17:50:56.101Z,98487.23
2023-03-28T17:53:22.635Z,98499.86
2023-03-28T17:55:49.041Z,98501.08
2023-03-28T17:58:15.578Z,98507.06
2023-03-28T18:00:42.322Z,98510.33
2023-03-28T18:03:08.984Z,98512.36
2023-03-28T18:05:35.699Z,98512.90
2023-03-28T18:08:02.311Z,98511.02
2023-03-28T18:10:28.747Z,98512.02
2023-03-28T18:12:55.368Z,98517.27
2023-03-28T18:15:21.943Z,98521.20
2023-03-28T18:17:48.540Z,98525.44
2023-03-28T18:20:15.340Z,98529.20
2023-03-28T18:22:41.752Z,98543.67
2023-03-28T18:25:09.445Z,98538.11
2023-03-28T18:27:35.995Z,98549.05
2023-03-28T18:30:02.439Z,98553.88
2023-03-28T18:32:28.961Z,98544.71
2023-03-28T18:34:55.495Z,98552.23
2023-03-28T18:37:23.950Z,98553.59
2023-03-28T18:39:50.462Z,98559.37
2023-03-28T18:42:17.008Z,98560.21
2023-03-28T18:44:43.522Z,98566.83
2023-03-28T18:47:10.770Z,98568.38
2023-03-28T18:49:37.452Z,98564.96
2023-03-28T18:52:03.957Z,98570.73
2023-03-28T18:54:32.305Z,98589.44
2023-03-28T18:56:59.122Z,98587.40
2023-03-28T18:59:26.602Z,98598.10
2023-03-28T19:01:53.891Z,98600.66
2023-03-28T19:04:22.132Z,98598.45
2023-03-28T19:06:49.956Z,98596.05
2023-03-28T19:09:16.454Z,98595.71
2023-03-28T19:11:43.209Z,98593.35
2023-03-28T19:14:10.189Z,98598.94
2023-03-28T19:16:37.924Z,98606.43
2023-03-28T19:19:06.556Z,98597.92
2023-03-28T19:21:33.332Z,98605.91
2023-03-28T19:24:00.101Z,98610.85
2023-03-28T19:26:26.716Z,98605.39
2023-03-28T19:28:53.367Z,98618.16
2023-03-28T19:31:19.967Z,98620.36
2023-03-28T19:33:46.813Z,98624.27
2023-03-28T19:36:13.382Z,98625.29
2023-03-28T19:38:41.950Z,98615.09
2023-03-28T19:41:19.298Z,98629.20
2023-03-28T19:43:47.133Z,98637.71
2023-03-28T19:46:19.632Z,98642.30
2023-03-28T19:48:46.149Z,98639.59
2023-03-28T19:51:13.270Z,98628.36
2023-03-28T19:53:43.438Z,98645.88
2023-03-28T19:56:10.111Z,98648.45
2023-03-28T19:58:36.677Z,98648.77
2023-03-28T20:01:04.082Z,98652.34
2023-03-28T20:03:31.547Z,98652.52
2023-03-28T20:06:03.770Z,98656.44
2023-03-28T20:08:30.607Z,98658.49
2023-03-28T20:10:57.324Z,98657.97
2023-03-28T20:13:23.842Z,98676.36
2023-03-28T20:15:50.527Z,98682.48
2023-03-28T20:18:18.877Z,98673.79
2023-03-28T20:20:50.952Z,98677.54
2023-03-28T20:23:18.728Z,98678.73
2023-03-28T20:25:45.886Z,98682.96
2023-03-28T20:28:12.428Z,98687.92
2023-03-28T20:30:39.098Z,98685.18
2023-03-28T20:33:05.898Z,98684.50
2023-03-28T20:35:33.369Z,98684.51
2023-03-28T20:37:59.992Z,98682.48
2023-03-28T20:40:27.140Z,98684.17
2023-03-28T20:42:53.963Z,98690.14
2023-03-28T20:45:20.944Z,98689.80
2023-03-28T20:47:58.124Z,98695.08
2023-03-28T20:50:27.182Z,98694.90
2023-03-28T20:52:53.720Z,98697.45
2023-03-28T20:55:20.673Z,98696.58
2023-03-28T20:57:47.137Z,98699.31
2023-03-28T21:00:15.030Z,98702.05
2023-03-28T21:02:42.123Z,98704.92
2023-03-28T21:05:09.191Z,98709.01
2023-03-28T21:07:36.015Z,98702.19
2023-03-28T21:10:02.522Z,98702.04
2023-03-28T21:12:29.096Z,98703.21
2023-03-28T21:14:55.543Z,98702.36
2023-03-28T21:17:22.542Z,98703.20
2023-03-28T21:19:49.330Z,98704.92
2023-03-28T21:22:16.188Z,98711.39
2023-03-28T21:24:42.944Z,98706.79
2023-03-28T21:27:09.386Z,98711.21
2023-03-28T21:29:35.955Z,98709.00
2023-03-28T21:32:02.533Z,98705.27
2023-03-28T21:34:29.238Z,98701.70
2023-03-28T21:36:55.730Z,98699.14
2023-03-28T21:39:22.364Z,98702.20
2023-03-28T21:41:55.264Z,98696.91
2023-03-28T21:44:22.731Z,98697.42
2023-03-28T21:46:49.407Z,98701.52
2023-03-28T21:49:16.013Z,98701.52
2023-03-28T21:51:42.554Z,98698.45
2023-03-28T21:54:09.022Z,98699.14
2023-03-28T21:56:35.967Z,98695.05
2023-03-28T21:59:02.446Z,98691.98
2023-03-28T22:01:29.337Z,98695.38
2023-03-28T22:03:55.884Z,98687.05
2023-03-28T22:06:22.436Z,98686.52
2023-03-28T22:08:49.559Z,98687.39
2023-03-28T22:11:18.165Z,98688.91
2023-03-28T22:13:45.442Z,98685.17
2023-03-28T22:16:12.349Z,98692.14
2023-03-28T22:18:40.290Z,98689.77
2023-03-28T22:21:09.809Z,98696.22
2023-03-28T22:23:36.685Z,98697.75
2023-03-28T22:26:03.299Z,98703.55
2023-03-28T22:28:32.932Z,98695.55
2023-03-28T22:31:01.843Z,98698.77
2023-03-28T22:33:28.545Z,98704.04
2023-03-28T22:35:56.150Z,98700.13
2023-03-28T22:38:22.812Z,98702.70
2023-03-28T22:40:49.926Z,98699.64
2023-03-28T22:44:01.166Z,98700.31
2023-03-28T22:46:27.916Z,98703.38
2023-03-28T22:48:54.664Z,98705.77
2023-03-28T22:51:21.313Z,98703.73
2023-03-28T22:53:49.125Z,98700.14
2023-03-28T22:56:15.674Z,98704.39
2023-03-28T22:58:42.159Z,98703.71
2023-03-28T23:01:08.698Z,98707.13
2023-03-28T23:03:35.321Z,98709.48
2023-03-28T23:06:03.571Z,98709.84
2023-03-28T23:08:31.684Z,98710.34
2023-03-28T23:10:58.140Z,98710.34
2023-03-28T23:13:25.852Z,98708.31
2023-03-28T23:15:52.401Z,98706.60
2023-03-28T23:18:19.686Z,98707.45
2023-03-28T23:20:50.316Z,98706.08
2023-03-28T23:23:17.505Z,98710.02
2023-03-28T23:25:44.101Z,98706.60
2023-03-28T23:28:11.041Z,98706.44
2023-03-28T23:30:39.058Z,98708.83
2023-03-28T23:33:05.791Z,98707.11
2023-03-28T23:35:32.960Z,98710.34
2023-03-28T23:37:59.619Z,98709.67
2023-03-28T23:40:27.291Z,98712.05
2023-03-28T23:42:54.048Z,98708.83
2023-03-28T23:45:20.601Z,98717.33
2023-03-28T23:47:51.333Z,98716.48
2023-03-28T23:50:18.704Z,98715.80
2023-03-28T23:52:45.249Z,98720.23
2023-03-28T23:55:11.879Z,98717.50
2023-03-28T23:57:38.412Z,98716.98
